Time;durP1;ratioP1;P1;durP2;ratioP2;P2;SDS_P1;SDS_P2;PMS_P1;PMS_P2;Temp;Humidity;BMP_temperature;BMP_pressure;BME280_temperature;BME280_humidity;BME280_pressure;Samples;Min_cycle;Max_cycle;Signal;HPM_P1;HPM_P2
2021/12/04 00:00:08;;;;;;;;;;;4.10;99.90;;;2.37;100.00;99726.75;2568397;30;137815;-38
2021/12/04 00:02:40;;;;;;;1.52;1.08;;;4.10;99.90;;;2.32;100.00;99713.84;2568549;30;136770;-38
2021/12/04 00:05:08;;;;;;;2.47;1.30;;;4.10;99.90;;;2.38;100.00;99721.16;2566958;30;138961;-38
2021/12/04 00:07:37;;;;;;;2.22;1.30;;;4.10;99.90;;;2.36;100.00;99703.53;2568785;30;137244;-38
2021/12/04 00:10:06;;;;;;;2.22;1.30;;;4.10;99.90;;;2.35;100.00;99715.34;2568056;30;139104;-38
2021/12/04 00:12:34;;;;;;;4.55;1.20;;;4.10;99.90;;;2.38;100.00;99717.66;2568337;30;137425;-38
2021/12/04 00:15:02;;;;;;;2.25;1.40;;;4.10;99.90;;;2.41;100.00;99706.50;2568668;30;137489;-37
2021/12/04 00:17:30;;;;;;;3.83;1.60;;;4.20;99.90;;;2.39;100.00;99697.78;2567876;30;137049;-38
2021/12/04 00:19:58;;;;;;;3.90;1.70;;;4.10;99.90;;;2.38;100.00;99691.53;2567704;30;138637;-38
2021/12/04 00:22:25;;;;;;;2.80;1.70;;;4.10;99.90;;;2.43;100.00;99697.22;2567876;30;138213;-38
2021/12/04 00:24:53;;;;;;;3.20;2.00;;;4.20;99.90;;;2.41;100.00;99685.81;2565889;30;137278;-38
2021/12/04 00:27:20;;;;;;;3.95;2.00;;;4.10;99.90;;;2.42;100.00;99694.72;2568274;30;138234;-38
2021/12/04 00:29:48;;;;;;;4.55;2.40;;;4.20;99.90;;;2.41;100.00;99685.81;2567827;30;138298;-38
2021/12/04 00:32:25;;;;;;;5.30;2.20;;;4.20;99.90;;;2.42;100.00;99684.78;2567567;30;137444;-38
2021/12/04 00:35:08;;;;;;;4.37;2.67;;;4.20;99.90;;;2.48;100.00;99685.06;2568341;30;137066;-38
2021/12/04 00:51:28;;;;;;;3.40;2.13;;;4.20;99.90;;;2.45;100.00;99659.34;2568255;30;137800;-38
2021/12/04 00:53:56;;;;;;;3.85;2.53;;;4.20;99.90;;;2.44;100.00;99649.59;2564906;30;137346;-38
2021/12/04 00:56:24;;;;;;;3.38;2.20;;;4.20;99.90;;;2.47;100.00;99651.09;2568618;30;138131;-38
2021/12/04 00:58:52;;;;;;;;;;;4.20;99.90;;;2.48;100.00;99653.56;2569133;30;136736;-38
2021/12/04 01:01:20;;;;;;;3.55;1.90;;;4.20;99.90;;;2.45;100.00;99640.47;2567041;30;138971;-38
2021/12/04 01:03:48;;;;;;;4.53;2.28;;;4.20;99.90;;;2.49;100.00;99640.97;2567687;30;137114;-38
2021/12/04 01:06:15;;;;;;;3.65;2.28;;;4.20;99.90;;;2.46;100.00;99626.00;2568798;30;138129;-38
2021/12/04 01:08:45;;;;;;;4.72;2.50;;;4.20;99.90;;;2.60;100.00;99627.00;2568229;30;137495;-38
2021/12/04 01:11:13;;;;;;;5.78;2.70;;;4.30;99.90;;;2.59;100.00;99633.41;2564056;38;136840;-38
2021/12/04 01:13:43;;;;;;;4.40;2.50;;;4.30;99.90;;;2.57;100.00;99622.84;2568044;30;137702;-38
2021/12/04 01:16:11;;;;;;;4.38;2.33;;;4.30;99.90;;;2.57;100.00;99619.28;2566278;30;138163;-38
2021/12/04 01:18:39;;;;;;;3.67;2.13;;;4.30;99.90;;;2.60;100.00;99618.91;2569653;30;136979;-38
2021/12/04 01:21:06;;;;;;;4.82;2.35;;;4.30;99.90;;;2.57;100.00;99616.59;2568049;30;138605;-38
2021/12/04 01:23:34;;;;;;;3.63;2.13;;;4.30;99.90;;;2.56;100.00;99617.63;2569025;30;137527;-38
2021/12/04 01:26:04;;;;;;;3.53;2.10;;;4.30;99.90;;;2.53;100.00;99615.31;2568203;30;140109;-38
2021/12/04 01:28:32;;;;;;;;;;;4.30;99.90;;;2.60;100.00;99621.59;2568695;30;137005;-38
2021/12/04 01:31:00;;;;;;;4.47;2.35;;;4.30;99.90;;;2.54;100.00;99616.97;2567199;30;138160;-38
2021/12/04 01:33:28;;;;;;;;;;;4.30;99.90;;;2.60;100.00;99616.22;2567606;30;137072;-38
2021/12/04 01:35:55;;;;;;;7.60;3.20;;;4.30;99.90;;;2.65;100.00;99624.59;2567329;30;137800;-38
2021/12/04 01:38:23;;;;;;;5.15;3.20;;;4.40;99.90;;;2.61;100.00;99617.88;2569701;30;137504;-38
2021/12/04 01:40:54;;;;;;;6.03;3.88;;;4.30;99.90;;;2.58;100.00;99613.72;2569400;30;137680;-38
2021/12/04 01:43:21;;;;;;;6.93;4.00;;;4.30;99.90;;;2.69;100.00;99619.63;2567361;30;137247;-38
2021/12/04 01:45:52;;;;;;;5.97;3.90;;;4.40;99.90;;;2.66;100.00;99622.72;2568933;30;138207;-38
2021/12/04 01:48:20;;;;;;;5.55;3.65;;;4.40;99.90;;;2.57;100.00;99622.84;2567670;30;137118;-38
2021/12/04 01:50:54;;;;;;;4.95;3.50;;;4.30;99.90;;;2.55;100.00;99624.03;2567551;30;138051;-38
2021/12/04 01:53:25;;;;;;;6.20;3.75;;;4.30;99.90;;;2.55;100.00;99613.25;2568986;30;138140;-38
2021/12/04 01:55:56;;;;;;;7.05;3.53;;;4.30;99.90;;;2.53;100.00;99604.53;2567167;30;138140;-38
2021/12/04 01:58:29;;;;;;;6.38;3.47;;;4.30;99.90;;;2.58;100.00;99604.81;2569108;30;138005;-38
2021/12/04 02:00:57;;;;;;;8.40;3.55;;;4.30;99.90;;;2.58;100.00;99607.50;2568100;30;138411;-38
2021/12/04 02:03:26;;;;;;;7.22;3.65;;;4.30;99.90;;;2.53;100.00;99599.16;2569505;30;136763;-38
2021/12/04 02:05:53;;;;;;;6.38;3.72;;;4.30;99.90;;;2.54;100.00;99601.69;2567935;30;137107;-38
2021/12/04 02:08:23;;;;;;;6.07;3.70;;;4.30;99.90;;;2.58;100.00;99596.72;2568637;30;137499;-38
2021/12/04 02:10:56;;;;;;;5.78;3.45;;;4.30;99.90;;;2.54;100.00;99595.44;2569230;30;138115;-38
2021/12/04 02:13:24;;;;;;;6.88;3.97;;;4.30;99.90;;;2.52;100.00;99601.03;2568201;30;137589;-38
2021/12/04 02:15:53;;;;;;;5.78;3.60;;;4.30;99.90;;;2.51;100.00;99591.25;2568923;30;137462;-38
2021/12/04 02:18:22;;;;;;;6.10;4.10;;;4.20;99.90;;;2.45;100.00;99583.94;2568097;30;136889;-38
2021/12/04 02:20:50;;;;;;;6.45;3.95;;;4.20;99.90;;;2.51;100.00;99587.75;2569249;30;138272;-38
2021/12/04 02:23:18;;;;;;;5.72;3.70;;;4.30;99.90;;;2.46;100.00;99588.31;2568439;30;137492;-38
2021/12/04 02:25:47;;;;;;;6.05;3.90;;;4.20;99.90;;;2.49;100.00;99587.91;2568369;30;138106;-38
2021/12/04 02:28:14;;;;;;;5.20;3.40;;;4.20;99.90;;;2.51;100.00;99583.19;2570343;30;137295;-38
2021/12/04 02:30:44;;;;;;;5.80;3.72;;;4.30;99.90;;;2.52;100.00;99586.72;2568103;30;138467;-38
2021/12/04 02:33:13;;;;;;;5.80;3.50;;;4.30;99.90;;;2.58;100.00;99583.25;2566780;30;137770;-38
2021/12/04 02:35:54;;;;;;;5.50;3.30;;;4.20;99.90;;;2.50;100.00;99578.81;2567027;30;137362;-38
2021/12/04 02:38:25;;;;;;;5.68;3.58;;;4.30;99.90;;;2.48;100.00;99580.06;2568235;30;137422;-38
2021/12/04 02:40:56;;;;;;;6.03;3.63;;;4.20;99.90;;;2.49;100.00;99570.94;2568654;30;138493;-38
2021/12/04 02:43:24;;;;;;;5.55;3.78;;;4.20;99.90;;;2.44;100.00;99568.81;2568666;30;138107;-38
2021/12/04 02:45:52;;;;;;;6.78;3.88;;;4.20;99.90;;;2.46;100.00;99563.25;2567989;30;138255;-38
2021/12/04 02:48:20;;;;;;;6.82;4.28;;;4.20;99.90;;;2.47;100.00;99562.22;2567880;30;138073;-38
2021/12/04 02:50:48;;;;;;;7.30;4.30;;;4.20;99.90;;;2.49;100.00;99554.78;2568320;30;137069;-37
2021/12/04 02:53:17;;;;;;;6.95;3.90;;;4.20;99.90;;;2.49;100.00;99541.34;2568257;30;138091;-38
2021/12/04 02:55:45;;;;;;;5.40;3.70;;;4.20;99.90;;;2.49;100.00;99527.88;2567652;30;138197;-38
2021/12/04 02:58:14;;;;;;;;;;;4.20;99.90;;;2.50;100.00;99524.97;2568453;30;137724;-38
2021/12/04 03:00:47;;;;;;;;;;;4.20;99.90;;;2.53;100.00;99524.63;2568545;30;137627;-38
2021/12/04 03:03:18;;;;;;;6.57;4.40;;;4.20;99.90;;;2.50;100.00;99518.75;2569128;30;136631;-38
2021/12/04 03:05:51;;;;;;;6.45;3.92;;;4.20;99.90;;;2.51;100.00;99523.13;2568580;30;137261;-38
2021/12/04 03:08:22;;;;;;;6.18;4.10;;;4.30;99.90;;;2.50;100.00;99513.38;2567318;30;137151;-38
2021/12/04 03:10:51;;;;;;;6.93;4.25;;;4.20;99.90;;;2.49;100.00;99512.53;2568134;30;138015;-38
2021/12/04 03:13:21;;;;;;;6.35;3.90;;;4.20;99.90;;;2.48;100.00;99513.56;2568032;30;137881;-38
2021/12/04 03:15:57;;;;;;;6.97;4.07;;;4.20;99.90;;;2.56;100.00;99502.69;2568019;30;138071;-38
2021/12/04 03:18:27;;;;;;;7.22;4.30;;;4.30;99.90;;;2.50;100.00;99491.84;2573925;30;137953;-40
2021/12/04 03:20:56;;;;;;;6.65;4.25;;;4.30;99.90;;;2.52;100.00;99479.88;2570553;30;137270;-37
2021/12/04 03:23:30;;;;;;;8.00;4.40;;;4.30;99.90;;;2.51;100.00;99471.97;2569089;30;136655;-40
2021/12/04 03:25:59;;;;;;;8.90;4.68;;;4.20;99.90;;;2.43;100.00;99481.00;2569422;30;138205;-39
2021/12/04 03:28:28;;;;;;;7.97;4.70;;;4.20;99.90;;;2.49;100.00;99472.16;2570009;30;138052;-40
2021/12/04 03:31:10;;;;;;;8.40;4.88;;;4.20;99.90;;;2.46;100.00;99458.25;2569230;30;137382;-40
2021/12/04 03:41:56;;;;;;;7.30;4.53;;;4.20;99.90;;;2.48;100.00;99456.19;2570464;30;137367;-40
2021/12/04 03:44:24;;;;;;;7.30;4.57;;;4.20;99.90;;;2.55;100.00;99454.38;2566062;30;137351;-39
2021/12/04 03:46:52;;;;;;;8.50;4.88;;;4.20;99.90;;;2.52;100.00;99463.72;2568970;30;138102;-40
2021/12/04 03:49:19;;;;;;;8.05;5.05;;;4.30;99.90;;;2.50;100.00;99451.44;2567700;30;137805;-40
2021/12/04 03:51:47;;;;;;;9.00;5.07;;;4.20;99.90;;;2.46;100.00;99452.88;2572062;30;138129;-39
2021/12/04 03:54:14;;;;;;;10.38;4.47;;;4.20;99.90;;;2.42;100.00;99455.94;2572385;30;137405;-39
2021/12/04 03:56:42;;;;;;;8.95;4.55;;;4.20;99.90;;;2.53;100.00;99457.28;2570034;30;140075;-40
2021/12/04 03:59:10;;;;;;;7.32;4.53;;;4.20;99.90;;;2.54;100.00;99455.41;2571073;30;137498;-39
2021/12/04 04:01:37;;;;;;;6.95;4.70;;;4.30;99.90;;;2.49;100.00;99457.88;2570117;30;139092;-39
2021/12/04 04:04:05;;;;;;;7.93;4.97;;;4.20;99.90;;;2.46;100.00;99459.06;2568282;30;137244;-39
2021/12/04 04:06:33;;;;;;;8.40;4.55;;;4.20;99.90;;;2.50;100.00;99465.72;2569476;30;137689;-40
2021/12/04 04:09:03;;;;;;;7.88;4.68;;;4.20;99.90;;;2.45;100.00;99452.03;2569737;30;137527;-39
2021/12/04 04:11:35;;;;;;;8.20;4.40;;;4.20;99.90;;;2.46;100.00;99444.78;2569714;30;137574;-40
2021/12/04 04:14:05;;;;;;;9.50;5.00;;;4.20;99.90;;;2.40;100.00;99443.69;2566422;30;136795;-40
2021/12/04 04:16:39;;;;;;;7.00;4.70;;;4.20;99.90;;;2.49;100.00;99445.22;2568369;30;138220;-39
2021/12/04 04:19:09;;;;;;;7.47;4.50;;;4.20;99.90;;;2.50;100.00;99438.00;2565757;30;137744;-40
2021/12/04 04:21:40;;;;;;;8.13;4.55;;;4.20;99.90;;;2.46;100.00;99439.41;2570533;30;138401;-40
2021/12/04 04:24:14;;;;;;;8.55;4.72;;;4.20;99.90;;;2.43;100.00;99440.63;2568411;30;138215;-40
2021/12/04 04:26:45;;;;;;;8.30;4.65;;;4.20;99.90;;;2.40;100.00;99428.38;2569273;30;137121;-40
2021/12/04 04:29:14;;;;;;;7.32;4.50;;;4.20;99.90;;;2.49;100.00;99436.31;2568891;30;138237;-40
2021/12/04 04:31:49;;;;;;;7.47;4.80;;;4.20;99.90;;;2.46;100.00;99434.03;2568428;30;138128;-40
2021/12/04 04:34:29;;;;;;;7.07;4.53;;;4.20;99.90;;;2.48;100.00;99435.47;2571046;30;137484;-39
2021/12/04 05:00:10;;;;;;;7.82;4.80;;;4.20;99.90;;;2.45;100.00;99417.03;2568209;30;138342;-40
2021/12/04 05:13:00;;;;;;;7.65;4.10;;;4.20;99.90;;;2.51;100.00;99410.03;2565685;30;137275;-40
2021/12/04 05:20:52;;;;;;;7.22;4.05;;;4.30;99.90;;;2.51;100.00;99397.41;2569712;30;138311;-39
2021/12/04 05:23:22;;;;;;;6.45;4.00;;;4.30;99.90;;;2.52;100.00;99411.69;2571125;30;136742;-40
2021/12/04 05:25:50;;;;;;;7.00;3.85;;;4.30;99.90;;;2.49;100.00;99406.72;2568984;30;138156;-40
2021/12/04 05:28:18;;;;;;;6.50;3.88;;;4.20;99.90;;;2.46;100.00;99402.53;2570891;30;136765;-40
2021/12/04 05:30:45;;;;;;;6.38;3.85;;;4.20;99.90;;;2.47;100.00;99400.69;2569271;30;139029;-40
2021/12/04 05:33:13;;;;;;;6.40;3.65;;;4.20;99.90;;;2.51;100.00;99401.97;2567274;30;138111;-40
2021/12/04 05:35:41;;;;;;;6.72;3.95;;;4.20;99.90;;;2.49;100.00;99404.84;2568088;30;139148;-40
2021/12/04 05:38:09;;;;;;;6.68;3.90;;;4.20;99.90;;;2.52;100.00;99406.31;2570721;30;137366;-40
2021/12/04 05:40:36;;;;;;;6.00;3.60;;;4.30;99.90;;;2.56;100.00;99397.66;2565757;30;137890;-40
2021/12/04 05:43:03;;;;;;;5.47;3.45;;;4.30;99.90;;;2.53;100.00;99395.38;2566947;30;137472;-40
2021/12/04 05:45:38;;;;;;;7.10;3.80;;;4.30;99.90;;;2.60;100.00;99390.00;2569276;30;137397;-40
2021/12/04 05:53:23;;;;;;;5.55;3.33;;;4.30;99.90;;;2.53;100.00;99381.06;2567626;30;137570;-40
2021/12/04 05:55:54;;;;;;;5.60;3.42;;;4.30;99.90;;;2.56;100.00;99386.03;2568466;30;137429;-40
2021/12/04 05:58:28;;;;;;;5.25;2.90;;;4.30;99.90;;;2.53;100.00;99387.28;2569377;30;136745;-40
2021/12/04 06:01:00;;;;;;;5.07;2.75;;;4.30;99.90;;;2.58;100.00;99389.38;2570094;30;138479;-39
2021/12/04 06:03:29;;;;;;;6.13;2.92;;;4.30;99.90;;;2.59;100.00;99389.19;2570243;30;137452;-40
2021/12/04 06:05:57;;;;;;;7.63;3.13;;;4.30;99.90;;;2.56;100.00;99394.13;2569010;30;137981;-39
2021/12/04 06:08:24;;;;;;;;;;;4.30;99.90;;;2.52;100.00;99392.84;2571020;30;137471;-40
2021/12/04 06:10:53;;;;;;;5.07;2.50;;;4.30;99.90;;;2.58;100.00;99392.91;2566891;30;138265;-40
2021/12/04 06:13:20;;;;;;;5.00;2.78;;;4.30;99.90;;;2.57;100.00;99385.88;2570671;30;137587;-40
2021/12/04 06:15:49;;;;;;;6.38;3.28;;;4.30;99.90;;;2.54;100.00;99382.72;2565904;30;138541;-40
2021/12/04 06:18:17;;;;;;;7.07;3.35;;;4.30;99.90;;;2.58;100.00;99382.13;2568935;30;137913;-40
2021/12/04 06:23:32;;;;;;;3.90;2.72;;;4.30;99.90;;;2.55;100.00;99384.38;2571112;30;138187;-40
2021/12/04 06:26:01;;;;;;;6.75;3.30;;;4.30;99.90;;;2.52;100.00;99372.16;2567928;30;139907;-40
2021/12/04 06:28:29;;;;;;;5.35;2.80;;;4.30;99.90;;;2.60;100.00;99373.84;2570856;30;137305;-40
2021/12/04 06:30:59;;;;;;;5.00;2.85;;;4.30;99.90;;;2.55;100.00;99371.78;2569394;30;138946;-40
2021/12/04 06:33:27;;;;;;;5.63;3.40;;;4.30;99.90;;;2.53;100.00;99372.97;2571477;30;136844;-39
2021/12/04 06:35:55;;;;;;;5.10;3.05;;;4.30;99.90;;;2.54;100.00;99383.56;2567208;30;138278;-40
2021/12/04 06:38:24;;;;;;;5.18;3.10;;;4.30;99.90;;;2.55;100.00;99384.38;2569405;30;137004;-40
2021/12/04 06:40:52;;;;;;;4.47;2.58;;;4.30;99.90;;;2.53;100.00;99378.38;2571870;30;137219;-40
2021/12/04 06:43:20;;;;;;;4.25;2.83;;;4.30;99.90;;;2.58;100.00;99373.22;2569342;30;137557;-40
2021/12/04 06:45:59;;;;;;;5.13;3.10;;;4.30;99.90;;;2.70;100.00;99370.81;2569509;30;138325;-40
2021/12/04 06:48:41;;;;;;;4.70;3.05;;;4.40;99.90;;;2.64;100.00;99364.34;2570542;30;137459;-40
2021/12/04 06:53:46;;;;;;;4.63;2.47;;;4.40;99.90;;;2.70;100.00;99371.66;2566417;30;137790;-40
2021/12/04 06:56:16;;;;;;;5.20;2.85;;;4.40;99.90;;;2.65;100.00;99370.59;2571523;30;138389;-40
2021/12/04 06:58:43;;;;;;;4.75;2.90;;;4.40;99.90;;;2.65;100.00;99368.75;2568125;30;138093;-40
2021/12/04 07:01:11;;;;;;;4.70;2.47;;;4.40;99.90;;;2.63;100.00;99378.03;2568755;30;138344;-40
2021/12/04 07:03:43;;;;;;;4.47;2.97;;;4.40;99.90;;;2.63;100.00;99369.94;2569551;30;136902;-40
2021/12/04 07:06:10;;;;;;;4.95;2.78;;;4.40;99.90;;;2.61;100.00;99380.91;2568036;30;137512;-39
2021/12/04 07:08:38;;;;;;;5.90;3.10;;;4.40;99.90;;;2.56;100.00;99373.44;2568254;30;136887;-40
2021/12/04 07:11:06;;;;;;;4.90;2.47;;;4.30;99.90;;;2.54;100.00;99367.41;2571362;30;138206;-40
2021/12/04 07:13:34;;;;;;;;;;;4.30;99.90;;;2.66;100.00;99372.25;2571473;30;137114;-40
2021/12/04 07:16:06;;;;;;;6.60;2.95;;;4.40;99.90;;;2.73;100.00;99368.56;2566441;30;138269;-40
2021/12/04 07:18:38;;;;;;;5.90;3.10;;;4.40;99.90;;;2.70;100.00;99370.81;2570094;30;137399;-39
2021/12/04 07:21:06;;;;;;;4.78;3.08;;;4.40;99.90;;;2.67;100.00;99377.44;2569696;30;138112;-40
2021/12/04 07:23:34;;;;;;;4.85;2.78;;;4.40;99.90;;;2.71;100.00;99364.41;2569470;30;137899;-39
2021/12/04 07:26:05;;;;;;;5.10;3.10;;;4.40;99.90;;;2.65;100.00;99366.03;2569729;30;139593;-39
2021/12/04 07:28:34;;;;;;;5.38;3.10;;;4.40;99.90;;;2.70;100.00;99363.59;2568474;30;138440;-40
2021/12/04 07:31:03;;;;;;;5.32;3.20;;;4.40;99.90;;;2.76;100.00;99361.13;2568642;30;138393;-40
2021/12/04 07:33:31;;;;;;;7.10;3.45;;;4.50;99.90;;;2.72;100.00;99361.53;2569859;30;136795;-39
2021/12/04 07:35:59;;;;;;;;;;;4.50;99.90;;;2.69;100.00;99367.31;2569383;30;138489;-40
2021/12/04 07:38:28;;;;;;;5.70;2.97;;;4.40;99.90;;;2.70;100.00;99373.50;2569608;30;137285;-40
2021/12/04 07:40:59;;;;;;;6.43;3.25;;;4.40;99.90;;;2.71;100.00;99376.03;2567931;30;139283;-40
2021/12/04 07:43:27;;;;;;;4.68;3.20;;;4.40;99.90;;;2.74;100.00;99374.78;2568789;30;138064;-39
2021/12/04 07:45:57;;;;;;;5.35;3.00;;;4.50;99.90;;;2.75;100.00;99370.25;2567651;30;137823;-40
2021/12/04 07:48:24;;;;;;;5.88;3.30;;;4.40;99.90;;;2.76;100.00;99371.91;2568818;30;137550;-40
2021/12/04 07:50:53;;;;;;;5.82;3.55;;;4.50;99.90;;;2.71;100.00;99376.03;2569280;30;137650;-39
2021/12/04 07:53:20;;;;;;;6.28;3.28;;;4.50;99.90;;;2.77;100.00;99377.06;2568838;30;137408;-39
2021/12/04 07:55:48;;;;;;;6.05;3.20;;;4.50;99.90;;;2.78;100.00;99372.53;2565888;30;137309;-39
2021/12/04 07:58:16;;;;;;;5.53;3.40;;;4.50;99.90;;;2.72;100.00;99376.84;2570684;30;137845;-40
2021/12/04 08:00:43;;;;;;;7.00;3.55;;;4.50;99.90;;;2.72;100.00;99374.16;2568992;30;139109;-40
2021/12/04 08:03:12;;;;;;;5.72;3.25;;;4.50;99.90;;;2.78;100.00;99370.66;2569690;30;138045;-39
2021/12/04 08:05:43;;;;;;;6.63;3.80;;;4.50;99.90;;;2.81;100.00;99375.69;2567628;30;138387;-39
2021/12/04 08:08:10;;;;;;;6.13;4.00;;;4.50;99.90;;;2.79;100.00;99374.19;2567279;30;137259;-39
2021/12/04 08:10:38;;;;;;;7.68;3.70;;;4.50;99.90;;;2.75;100.00;99379.13;2568414;30;139073;-39
2021/12/04 08:13:06;;;;;;;7.20;4.18;;;4.50;99.90;;;2.75;100.00;99379.13;2568267;30;137872;-40
2021/12/04 08:15:38;;;;;;;6.03;3.67;;;4.50;99.90;;;2.75;100.00;99364.84;2567702;30;137219;-39
2021/12/04 08:18:09;;;;;;;9.30;3.83;;;4.50;99.90;;;2.79;100.00;99371.50;2570057;30;137469;-40
2021/12/04 08:20:37;;;;;;;6.78;3.90;;;4.50;99.90;;;2.79;100.00;99360.72;2567271;30;137427;-40
2021/12/04 08:23:05;;;;;;;;;;;4.50;99.90;;;2.83;100.00;99367.38;2569663;30;136703;-40
2021/12/04 08:25:36;;;;;;;6.75;3.70;;;4.50;99.90;;;2.81;100.00;99358.66;2569038;30;137234;-39
2021/12/04 08:28:05;;;;;;;8.35;4.25;;;4.50;99.90;;;2.85;100.00;99365.31;2569655;30;137029;-40
2021/12/04 08:30:36;;;;;;;6.85;3.90;;;4.60;99.90;;;2.91;100.00;99361.81;2570531;30;137349;-40
2021/12/04 08:33:04;;;;;;;7.40;4.55;;;4.60;99.90;;;2.93;100.00;99359.78;2570497;30;136914;-40
2021/12/04 08:35:38;;;;;;;6.50;3.70;;;4.60;99.90;;;2.96;100.00;99351.31;2568063;30;137567;-39
2021/12/04 08:38:09;;;;;;;6.25;3.92;;;4.60;99.90;;;2.99;100.00;99350.06;2567307;30;137351;-40
2021/12/04 08:40:39;;;;;;;7.53;4.13;;;4.70;99.90;;;3.01;100.00;99346.16;2570050;30;139179;-39
2021/12/04 08:43:08;;;;;;;7.97;4.57;;;4.70;99.90;;;3.08;100.00;99348.03;2571061;30;136902;-40
2021/12/04 08:45:37;;;;;;;6.68;4.25;;;4.70;99.90;;;3.11;100.00;99353.03;2569738;30;138055;-40
2021/12/04 08:48:05;;;;;;;6.28;3.85;;;4.80;99.90;;;3.09;100.00;99360.47;2570286;30;137453;-40
2021/12/04 08:50:35;;;;;;;7.25;4.47;;;4.80;99.90;;;3.10;100.00;99346.81;2569849;30;139215;-40
2021/12/04 08:53:05;;;;;;;8.95;4.95;;;4.80;99.90;;;3.10;100.00;99345.97;2568682;30;137109;-40
2021/12/04 08:55:36;;;;;;;9.25;4.43;;;4.80;99.90;;;3.22;100.00;99339.00;2569975;30;139146;-40
2021/12/04 08:58:07;;;;;;;8.10;4.43;;;4.90;99.90;;;3.21;100.00;99337.34;2569635;30;137581;-40
2021/12/04 09:00:54;;;;;;;8.32;4.78;;;4.90;99.90;;;3.30;100.00;99341.50;2567827;30;136759;-40
2021/12/04 09:03:30;;;;;;;7.28;4.60;;;5.00;99.90;;;3.33;100.00;99340.28;2569956;30;137485;-40
2021/12/04 09:05:58;;;;;;;7.20;4.70;;;5.00;99.90;;;3.33;100.00;99345.69;2568402;30;138969;-40
2021/12/04 09:08:29;;;;;;;7.20;4.32;;;5.00;99.90;;;3.36;100.00;99345.28;2568507;30;137623;-39
2021/12/04 09:11:03;;;;;;;8.05;4.45;;;5.00;99.90;;;3.36;100.00;99360.59;2567282;30;138110;-40
2021/12/04 09:13:30;;;;;;;6.88;4.30;;;5.00;99.90;;;3.35;100.00;99343.63;2568813;30;137503;-40
2021/12/04 09:15:59;;;;;;;7.38;4.20;;;5.00;99.90;;;3.34;100.00;99339.25;2569506;30;139058;-40
2021/12/04 09:18:27;;;;;;;7.22;4.50;;;5.00;99.90;;;3.36;100.00;99329.09;2570795;30;138708;-39
2021/12/04 09:20:56;;;;;;;8.18;4.38;;;5.00;99.90;;;3.41;100.00;99336.56;2566985;30;137147;-39
2021/12/04 09:23:30;;;;;;;7.30;4.45;;;5.10;99.90;;;3.38;100.00;99335.13;2567987;30;137567;-39
2021/12/04 09:26:01;;;;;;;6.90;4.22;;;5.10;99.90;;;3.45;100.00;99327.06;2568050;30;137389;-39
2021/12/04 09:28:43;;;;;;;7.05;4.18;;;5.10;99.90;;;3.47;100.00;99322.28;2568071;30;138167;-39
2021/12/04 09:31:24;;;;;;;7.00;4.07;;;5.10;99.90;;;3.51;100.00;99312.75;2567942;30;138268;-39
2021/12/04 10:32:44;;;;;;;6.60;4.40;;;6.30;99.90;;;4.59;99.99;99246.09;2568634;30;137348;-39
2021/12/04 10:34:53;;;;;;;8.05;4.18;;;6.20;99.90;;;4.47;100.00;99243.22;2567306;30;137424;-39
2021/12/04 10:37:28;;;;;;;6.45;4.05;;;6.10;99.90;;;4.51;100.00;99234.69;2565397;30;138701;-39
2021/12/04 10:40:07;;;;;;;10.27;4.60;;;6.10;99.90;;;4.52;100.00;99229.09;2568120;30;136726;-39
2021/12/04 10:42:57;;;;;;;6.28;3.97;;;6.10;99.90;;;4.65;100.00;99216.59;2568765;30;138392;-39
2021/12/04 10:45:33;;;;;;;6.97;4.03;;;6.20;99.90;;;4.74;100.00;99199.91;2567785;30;137341;-39
2021/12/04 10:48:12;;;;;;;6.88;3.83;;;6.30;99.90;;;4.81;100.00;99199.09;2567518;30;138905;-39
2021/12/04 10:53:27;;;;;;;5.65;3.90;;;6.40;99.90;;;4.95;100.00;99173.63;2567938;30;137076;-39
2021/12/04 11:35:59;;;;;;;5.93;3.22;;;6.50;99.90;;;4.88;98.08;99116.91;2567691;30;136956;-39
2021/12/04 11:41:19;;;;;;;5.15;3.10;;;6.50;99.90;;;4.90;97.69;99093.19;2567844;30;138074;-39
2021/12/04 11:43:59;;;;;;;4.05;3.00;;;6.50;99.90;;;4.94;98.00;99090.09;2569020;30;137086;-39
2021/12/04 11:46:45;;;;;;;4.45;3.03;;;6.50;99.90;;;4.96;97.70;99093.41;2567094;30;137223;-39
2021/12/04 11:49:26;;;;;;;4.70;3.35;;;6.50;99.90;;;4.98;97.66;99086.72;2567367;30;138133;-39
2021/12/04 11:52:06;;;;;;;5.18;2.95;;;6.60;99.90;;;4.92;97.34;99094.88;2568176;30;137595;-39
2021/12/04 11:54:53;;;;;;;4.47;2.70;;;6.50;99.90;;;4.95;96.91;99081.75;2566553;30;138326;-39
2021/12/04 11:57:34;;;;;;;4.80;2.97;;;6.50;99.90;;;4.98;96.37;99066.97;2569515;30;138599;-39
2021/12/04 12:00:28;;;;;;;3.92;2.67;;;6.60;99.90;;;4.97;96.58;99073.44;2567938;30;137322;-39
2021/12/04 12:03:18;;;;;;;3.72;2.55;;;6.50;99.90;;;4.97;95.68;99054.50;2567835;30;136658;-39
2021/12/04 12:05:51;;;;;;;5.18;3.13;;;6.50;99.90;;;4.97;96.34;99052.63;2568484;30;137724;-40
2021/12/04 12:08:32;;;;;;;4.53;2.95;;;6.50;99.90;;;5.06;96.53;99049.66;2566157;30;138063;-39
2021/12/04 12:11:26;;;;;;;4.75;3.08;;;6.60;99.90;;;5.07;94.48;99044.03;2566140;30;137419;-39
2021/12/04 12:14:06;;;;;;;4.30;3.00;;;6.70;99.90;;;5.09;95.86;99049.22;2567491;30;137452;-39
2021/12/04 12:16:39;;;;;;;4.50;2.83;;;6.70;99.90;;;5.13;95.53;99043.13;2567543;30;137416;-39
2021/12/04 12:19:21;;;;;;;5.65;2.97;;;6.70;99.90;;;5.10;95.00;99040.06;2567861;30;137530;-39
2021/12/04 12:22:05;;;;;;;4.55;3.10;;;6.70;99.90;;;5.11;95.77;99033.63;2568204;30;138354;-39
2021/12/04 12:27:33;;;;;;;4.65;2.95;;;6.70;99.90;;;5.17;94.16;99030.00;2566725;30;139147;-39
2021/12/04 12:39:05;;;;;;;4.35;2.90;;;6.80;99.90;;;5.24;95.89;99017.25;2567882;30;139056;-39
2021/12/04 12:41:34;;;;;;;5.05;3.30;;;6.80;99.90;;;5.21;95.07;99004.19;2567808;30;138207;-39
2021/12/04 12:44:17;;;;;;;5.18;3.00;;;6.70;99.90;;;5.19;94.45;98992.78;2567528;30;137256;-40
2021/12/04 12:47:16;;;;;;;3.33;2.22;;;6.80;99.90;;;5.23;94.32;98991.28;2567668;30;139361;-39
2021/12/04 12:49:45;;;;;;;4.15;2.67;;;6.80;99.90;;;5.18;94.74;98988.41;2568511;30;138170;-39
2021/12/04 12:52:13;;;;;;;4.57;2.75;;;6.80;99.90;;;5.11;95.38;98985.75;2567666;30;138319;-39
2021/12/04 12:55:05;;;;;;;4.97;3.17;;;6.70;99.90;;;5.01;95.29;98990.84;2567379;30;138915;-39
2021/12/04 12:57:39;;;;;;;5.18;2.67;;;6.70;99.90;;;4.98;94.31;98988.59;2568678;30;136900;-39
2021/12/04 13:12:03;;;;;;;4.13;2.60;;;6.40;99.90;;;4.61;98.48;99011.69;2568407;30;137322;-39
2021/12/04 13:14:54;;;;;;;4.80;2.70;;;6.30;99.90;;;4.59;99.28;99018.38;2568100;30;138096;-39
2021/12/04 13:17:29;;;;;;;4.60;2.53;;;6.20;99.90;;;4.59;100.00;99007.59;2568965;30;139088;-39
2021/12/04 13:19:58;;;;;;;4.32;2.60;;;6.30;99.90;;;4.56;100.00;99011.53;2568630;30;137676;-39
2021/12/04 13:22:30;;;;;;;4.55;2.65;;;6.20;99.90;;;4.48;100.00;99017.19;2567627;30;139142;-39
2021/12/04 13:25:03;;;;;;;3.80;2.28;;;6.20;99.90;;;4.44;100.00;99011.41;2568082;30;137538;-39
2021/12/04 13:30:15;;;;;;;3.97;2.40;;;6.10;99.90;;;4.41;100.00;99011.03;2567888;30;137475;-39
2021/12/04 13:32:46;;;;;;;4.10;2.40;;;6.10;99.90;;;4.37;100.00;99005.22;2568625;30;137865;-39
2021/12/04 13:35:22;;;;;;;4.30;2.05;;;6.00;99.90;;;4.37;100.00;99010.63;2567395;30;137609;-39
2021/12/04 13:38:01;;;;;;;5.00;2.70;;;6.00;99.90;;;4.36;100.00;99003.56;2567244;30;137082;-39
2021/12/04 13:40:29;;;;;;;4.80;2.58;;;6.00;99.90;;;4.35;100.00;99006.47;2567659;30;137574;-39
2021/12/04 13:42:57;;;;;;;5.22;2.85;;;6.00;99.90;;;4.34;100.00;99011.06;2569517;30;138483;-39
2021/12/04 13:45:25;;;;;;;4.57;2.78;;;6.00;99.90;;;4.30;100.00;99007.13;2567381;30;137693;-39
2021/12/04 13:47:58;;;;;;;5.30;2.53;;;6.00;99.90;;;4.27;100.00;98999.47;2566794;30;138680;-39
2021/12/04 13:53:22;;;;;;;4.72;2.78;;;5.90;99.90;;;4.27;100.00;98992.19;2567447;30;138313;-39
2021/12/04 13:56:07;;;;;;;6.60;3.30;;;5.90;99.90;;;4.27;100.00;98988.66;2568982;30;137556;-39
2021/12/04 13:58:48;;;;;;;5.38;3.13;;;5.90;99.90;;;4.24;100.00;98991.78;2568483;30;138564;-39
2021/12/04 14:01:16;;;;;;;5.75;3.13;;;5.90;99.90;;;4.24;100.00;98989.06;2568561;30;138170;-39
2021/12/04 14:03:46;;;;;;;5.10;3.28;;;5.90;99.90;;;4.25;100.00;98996.16;2568743;30;138385;-39